Humidity-temperature Sensor

Selected Measurement Type: Relative Humidity

 
Relative Humidity [%]     6 entries per hour
Showing data from 5/5/2015 (00:00:00 Z) to 5/4/2015 (00:01:00 Z)
Previous Next [ Day | 3-Days | 7-Days ]
First Last
Prev [ Day | 3-Days | 7-Days ] Next
First Last

Start Time:     :
End Time:     :     
Time (in GMT) :00 :50 :40 :30 :20 :10
Previous Next [ Day | 3-Days | 7-Days ]
First Last
Prev [ Day | 3-Days | 7-Days ] Next
First Last


123 => good data
MM => data is determined as missing
-- => data not received/configured
Back to Top Back to Top
5/5/2015 00:00 to 23:10 85.48 87.52 88.06 86.49 87.70 84.41
5/4/2015 23:00 to 22:10 88.26 86.63 87.19 85.90 89.56 89.96
5/4/2015 22:00 to 21:10 92.77 88.49 86.24 84.75 84.93 85.13
5/4/2015 21:00 to 20:10 86.41 85.60 85.96 89.42 92.71 93.88
5/4/2015 20:00 to 19:10 93.78 93.94 93.38 90.63 92.29 92.35
5/4/2015 19:00 to 18:10 88.45 92.79 90.97 94.37 95.54 95.98
5/4/2015 18:00 to 17:10 96.51 96.29 96.04 96.13 93.03 89.21
5/4/2015 17:00 to 16:10 87.66 87.44 86.53 86.55 88.99 90.77
5/4/2015 16:00 to 15:10 94.81 95.46 96.00 95.44 92.79 90.93
5/4/2015 15:00 to 14:10 90.31 91.42 92.47 90.29 93.74 95.46
5/4/2015 14:00 to 13:10 94.75 93.28 92.47 92.87 92.00 91.19
5/4/2015 13:00 to 12:10 88.89 90.08 90.67 90.95 90.93 93.42
5/4/2015 12:00 to 11:10 94.37 94.81 94.57 93.72 92.33 92.43
5/4/2015 11:00 to 10:10 92.61 91.96 93.09 93.18 93.82 93.62
5/4/2015 10:00 to 9:10 93.54 92.77 93.32 93.88 94.08 93.78
5/4/2015 09:00 to 8:10 93.01 92.31 93.13 93.05 94.17 94.83
5/4/2015 08:00 to 7:10 92.95 91.50 92.19 92.87 93.28 93.07
5/4/2015 07:00 to 6:10 91.96 93.30 94.83 94.75 94.55 93.66
5/4/2015 06:00 to 5:10 95.32 95.14 95.32 94.49 93.40 92.16
5/4/2015 05:00 to 4:10 92.41 92.04 91.90 91.07 91.96 90.67
5/4/2015 04:00 to 3:10 88.35 88.95 88.47 87.19 88.75 90.81
5/4/2015 03:00 to 2:10 91.28 91.05 91.38 92.19 92.71 92.41
5/4/2015 02:00 to 1:10 93.52 93.42 93.48 92.69 92.41 92.00
5/4/2015 01:00 to 0:10 92.71 92.79 92.49 92.31 92.12 93.28